KSCX

Details ICAO KSCX
Name Scott Muni
Region United States
Timezone America/New_York (UTC-4.0)
Plans Departing 2
Arriving 0
Stats Elevation 1,545 ft / 471 m (AMSL)
Location 36.455707° -84.585761°
Runways 1
Magnetic Variation 5.418° W
Sunrise 2018-05-20 10:29:17 UTC / 2018-05-20 06:29:17 Local
Sunset 2018-05-21 00:43:20 UTC / 2018-05-20 20:43:20 Local
Advertisement - Login to hide

Runways

ID Width Length Bearing (true) Bearing (mag) Surface Threshold Offset Overrun Length
05 75 ft / 23 m 5,501 ft / 1,677 m 46.30° 51.72° Asphalt 0 ft / 0 m 0 ft / 0 m
23 75 ft / 23 m 5,501 ft / 1,677 m 226.31° 231.73° Asphalt 0 ft / 0 m 0 ft / 0 m

Map

Weather


0- 5 10 15 20 25 30 35+ Temperature / ° C

Clouds and Precipitation
Forecast for 2018-05-20 18:00 UTC. Updated 43 minutes ago

Ground ~20,000 ft ~40,000 ft Winds

METAR

KSCX 201555Z AUTO 33004KT 10SM CLR 27/17 A3018 RMK A01

TAF

Not found

Frequencies

Recorded 135.02 MHz AWOS 3
Unicom 122.80 MHz CTAF/UNICOM
Warning: Do not use this data for real-world aviation or navigation. No guarantee of current accuracy is given.